CMA-CGM Fort Saint Pierre — FQFM — position and weather

sailwx.info

Track history (hours):
 
Tides and Currents Weather Stations Pressure Air Temp Water Temp Dewpoint Dewpoint Depression Visibility Wind Speed Wind Dir Waves Ship Positions

CMA-CGM Fort Saint Pierre

Last reported at 2016-Jun-22 20:30 UTC. Time now 2016-Jun-26 01:04 UTC.
Position N 49°03' W 008°07'.

Length 197 m; beam 30 m.

Type: Ship (hazmat cat A). MMSI: 226328000.

Date/timePositionNaut miles runAvg speedWind from/ knotsBaromVisibWave heightAir tempDewpointWater temp
2016-Jun-22 20:30N 49°03' W 008°07'1717.7
2016-Jun-22 19:33N 49°06' W 007°42'1917.4
2016-Jun-22 18:27N 49°08' W 007°13'12015.0
2016-Jun-22 10:26N 49°40' W 004°14'1618.1
2016-Jun-22 09:33N 49°45' W 003°51'1716.9
2016-Jun-22 08:33N 49°52' W 003°27'1616.4
2016-Jun-22 07:33N 49°57' W 003°03'1717.0
2016-Jun-22 06:33N 50°02' W 002°37'3817.4
2016-Jun-22 04:21N 49°57' W 001°38'1721.3
2016-Jun-22 03:33N 49°50' W 001°15'2121.2
2016-Jun-22 02:33N 49°42' W 000°44'2019.9
2016-Jun-22 01:33N 49°34' W 000°16'1515.0
2016-Jun-22 00:33N 49°29' E 000°05'3 3.0
2016-Jun-21 23:32N 49°27' E 000°10'0 0.0
2016-Jun-21 22:32N 49°27' E 000°10'0 0.0
2016-Jun-21 21:32N 49°27' E 000°10'0 0.0
2016-Jun-21 20:32N 49°27' E 000°10'0 0.0
2016-Jun-21 19:32N 49°27' E 000°10'0 0.0
2016-Jun-21 18:32N 49°27' E 000°10'0 0.0
2016-Jun-21 17:32N 49°27' E 000°10'0 0.0
2016-Jun-21 16:32N 49°27' E 000°10'0 0.0
2016-Jun-21 15:32N 49°27' E 000°10'0 0.0
2016-Jun-21 14:32N 49°27' E 000°10'0 0.0
2016-Jun-21 13:32N 49°27' E 000°10'0 0.0
2016-Jun-21 12:33N 49°27' E 000°10'5 5.2
2016-Jun-21 11:34N 49°30' E 000°03'4 3.6
2016-Jun-21 10:33N 49°30' W 000°03'1 1.3
2016-Jun-21 09:33N 49°30' W 000°05'1211.8
2016-Jun-21 08:33N 49°41' W 000°11'1615.7
2016-Jun-21 07:33N 49°57' W 000°10'1413.8
2016-Jun-21 06:33N 50°11' W 000°12'2311.5
2016-Jun-21 04:33N 50°30' E 000°09'1614.1
2016-Jun-21 03:26N 50°34' E 000°33'2915.2
2016-Jun-21 01:31N 50°51' E 001°11'1414.8
2016-Jun-21 00:33N 51°01' E 001°27'1514.6
2016-Jun-20 23:33N 51°11' E 001°43'1414.0
2016-Jun-20 22:33N 51°22' E 001°57'1211.8
2016-Jun-20 21:34N 51°21' E 002°15'1414.0
2016-Jun-20 20:32N 51°23' E 002°38'1414.1
2016-Jun-20 19:31N 51°24' E 003°01'1515.4
2016-Jun-20 18:33N 51°25' E 003°25'1111.4
2016-Jun-20 17:34N 51°23' E 003°43'1212.0
2016-Jun-20 16:34N 51°25' E 004°02'1010.4
2016-Jun-20 15:34N 51°20' E 004°16'2 2.4
2016-Jun-20 14:33N 51°18' E 004°16'0 0.0
2016-Jun-20 13:33N 51°18' E 004°16'0 0.0
2016-Jun-20 12:27N 51°18' E 004°16'0 0.0
2016-Jun-20 11:30N 51°18' E 004°16'0 0.0
2016-Jun-20 10:33N 51°18' E 004°16'0 0.0
2016-Jun-20 09:30N 51°18' E 004°16'0 0.0
2016-Jun-20 08:33N 51°18' E 004°16'0 0.0
2016-Jun-20 07:33N 51°18' E 004°16'0 0.0
2016-Jun-20 06:30N 51°18' E 004°16'0 0.0
2016-Jun-20 05:30N 51°18' E 004°16'0 0.0
2016-Jun-20 04:24N 51°18' E 004°16'0 0.0
2016-Jun-20 03:33N 51°18' E 004°16'0 0.0
2016-Jun-20 02:33N 51°18' E 004°16'0 0.0
2016-Jun-20 01:33N 51°18' E 004°16'4 3.7
2016-Jun-20 00:34N 51°21' E 004°15'1111.1
2016-Jun-19 23:34N 51°25' E 003°58'1212.1
2016-Jun-19 22:33N 51°26' E 003°38'1414.4
2016-Jun-19 21:34N 51°25' E 003°16'10 9.7
2016-Jun-19 20:33N 51°29' E 003°01'1816.5
2016-Jun-19 19:29N 51°44' E 003°14'2312.1
2016-Jun-19 17:33N 52°07' E 003°21'1111.3
2016-Jun-19 16:33N 52°18' E 003°25'1211.2
2016-Jun-19 15:32N 52°29' E 003°28'1110.9
2016-Jun-19 14:32N 52°40' E 003°34'7211.1
2016-Jun-19 08:05N 53°32' E 004°55'611.8
2016-Jun-19 07:33N 53°34' E 005°06'1111.2
2016-Jun-19 06:34N 53°38' E 005°23'1111.3
2016-Jun-19 05:33N 53°42' E 005°41'1111.3
2016-Jun-19 04:34N 53°45' E 005°60'1111.3
2016-Jun-19 03:33N 53°49' E 006°18'1111.1
2016-Jun-19 02:33N 53°51' E 006°36'1111.4
2016-Jun-19 01:33N 53°54' E 006°55'1211.4
2016-Jun-19 00:33N 53°57' E 007°14'1111.5
2016-Jun-18 23:33N 53°60' E 007°32'1111.5
2016-Jun-18 22:33N 54°02' E 007°52'1111.4
2016-Jun-18 21:33N 54°01' E 008°11'1212.5
2016-Jun-18 20:33N 53°58' E 008°32'1111.5
2016-Jun-18 19:33N 53°51' E 008°47'1514.9
2016-Jun-18 18:33N 53°53' E 009°12'1615.9
2016-Jun-18 17:34N 53°41' E 009°30'1413.7
2016-Jun-18 16:33N 53°33' E 009°49'4 3.6
2016-Jun-18 15:33N 53°32' E 009°55'0 0.0
2016-Jun-18 14:33N 53°32' E 009°55'0 0.0
2016-Jun-18 13:33N 53°32' E 009°55'0 0.0
2016-Jun-18 12:33N 53°32' E 009°55'0 0.0
2016-Jun-18 11:33N 53°32' E 009°55'0 0.0
2016-Jun-18 10:33N 53°32' E 009°55'0 0.0
2016-Jun-18 09:33N 53°32' E 009°55'0 0.0
2016-Jun-18 08:33N 53°32' E 009°55'0 0.0
2016-Jun-18 07:33N 53°32' E 009°55'0 0.0
2016-Jun-18 06:33N 53°32' E 009°55'0 0.0
2016-Jun-18 05:33N 53°32' E 009°55'2 2.1
2016-Jun-18 04:33N 53°33' E 009°51'9 8.7
2016-Jun-18 03:33N 53°35' E 009°37'1110.9
2016-Jun-18 02:34N 53°44' E 009°26'1313.1
2016-Jun-18 01:33N 53°53' E 009°10'1211.9
2016-Jun-18 00:33N 53°50' E 008°50'1312.7
2016-Jun-17 23:33N 53°58' E 008°33'1515.1
2016-Jun-17 22:33N 53°59' E 008°07'4 4.0
2016-Jun-17 21:33N 53°60' E 008°14'7 7.1
2016-Jun-17 20:33N 53°58' E 008°02'8 8.5
2016-Jun-17 19:34N 53°57' E 007°48'1010.0
2016-Jun-17 18:33N 53°54' E 007°32'1010.1
2016-Jun-17 17:34N 53°52' E 007°15'10 9.6
2016-Jun-17 16:33N 53°50' E 006°59'9 9.4
2016-Jun-17 15:33N 53°48' E 006°44'9 9.5
2016-Jun-17 14:33N 53°46' E 006°28'9 9.4
2016-Jun-17 13:33N 53°43' E 006°12'9 9.5
2016-Jun-17 12:33N 53°40' E 005°57'10 9.5
2016-Jun-17 11:33N 53°37' E 005°42'9 9.4
2016-Jun-17 10:33N 53°34' E 005°27'9 9.2
2016-Jun-17 09:33N 53°31' E 005°12'9 9.2
2016-Jun-17 08:33N 53°28' E 004°58'9 8.5
2016-Jun-17 07:30N 53°24' E 004°44'9 8.5
2016-Jun-17 06:25N 53°16' E 004°37'7 8.2
2016-Jun-17 05:33N 53°10' E 004°31'9 8.7
2016-Jun-17 04:33N 53°03' E 004°24'9 9.1
2016-Jun-17 03:33N 52°55' E 004°16'10 9.6
2016-Jun-17 02:33N 52°46' E 004°08'10 9.8
2016-Jun-17 01:33N 52°38' E 003°60'1010.2
2016-Jun-17 00:33N 52°28' E 003°54'1010.2
2016-Jun-16 23:33N 52°18' E 003°52'10 9.7
2016-Jun-16 22:33N 52°09' E 003°55'8 8.4
2016-Jun-16 21:33N 52°01' E 003°60'1413.6
2016-Jun-16 20:34N 51°54' E 004°18'5 4.6
2016-Jun-16 19:31N 51°54' E 004°26'0 0.0
2016-Jun-16 18:31N 51°54' E 004°26'0 0.0
2016-Jun-16 17:31N 51°54' E 004°26'0 0.0
2016-Jun-16 16:31N 51°54' E 004°26'0 0.0
2016-Jun-16 15:31N 51°54' E 004°26'0 0.0
2016-Jun-16 14:31N 51°54' E 004°26'0 0.0
2016-Jun-16 13:28N 51°54' E 004°26'0 0.0
2016-Jun-16 12:28N 51°54' E 004°26'0 0.0
2016-Jun-16 11:31N 51°54' E 004°26'0 0.0
2016-Jun-16 10:31N 51°54' E 004°26'0 0.0
2016-Jun-16 09:31N 51°54' E 004°26'0 0.0
2016-Jun-16 08:31N 51°54' E 004°26'0 0.0
2016-Jun-16 07:31N 51°54' E 004°26'0 0.0
2016-Jun-16 06:28N 51°54' E 004°26'0 0.0
2016-Jun-16 05:31N 51°54' E 004°26'0 0.0
2016-Jun-16 04:31N 51°54' E 004°26'1 0.7
2016-Jun-16 03:34N 51°54' E 004°26'7 6.9
2016-Jun-16 02:33N 51°55' E 004°14'1010.0
2016-Jun-16 01:33N 51°60' E 004°00'1110.6
2016-Jun-16 00:33N 51°59' E 003°43'1212.1
2016-Jun-15 23:33N 51°56' E 003°24'1413.4
2016-Jun-15 22:29N 51°52' E 003°01'1313.7
2016-Jun-15 21:33N 51°47' E 002°43'1413.8
2016-Jun-15 20:33N 51°37' E 002°27'1414.0
2016-Jun-15 19:33N 51°28' E 002°10'1413.9
2016-Jun-15 18:33N 51°17' E 001°55'1414.0
2016-Jun-15 17:34N 51°07' E 001°41'1313.4
2016-Jun-15 16:33N 50°56' E 001°28'1713.7
2016-Jun-15 15:18N 50°40' E 001°18'4913.2
2016-Jun-15 11:33N 50°21' E 000°07'1413.8
2016-Jun-15 10:33N 50°17' W 000°14'1615.9
2016-Jun-15 09:34N 50°13' W 000°38'8813.8
2016-Jun-15 03:13N 49°50' W 002°50'1014.1
2016-Jun-15 02:30N 49°46' W 003°04'1314.1
2016-Jun-15 01:33N 49°41' W 003°23'1614.0
2016-Jun-15 00:27N 49°36' W 003°46'  
Track history (hours):
 
Tides and Currents Weather Stations Pressure Air Temp Water Temp Dewpoint Dewpoint Depression Visibility Wind Speed Wind Dir Waves Ship Positions

CMA-CGM Fort Saint Pierre

Last reported at 2016-Jun-22 20:30 UTC. Time now 2016-Jun-26 01:04 UTC.
Position N 49°03' W 008°07'.

Length 197 m; beam 30 m.

Type: Ship (hazmat cat A). MMSI: 226328000.

Date/timePositionNaut miles runAvg speedWind from/ knotsBaromVisibWave heightAir tempDewpointWater temp
2016-Jun-22 20:30N 49°03' W 008°07'1717.7
2016-Jun-22 19:33N 49°06' W 007°42'1917.4
2016-Jun-22 18:27N 49°08' W 007°13'12015.0
2016-Jun-22 10:26N 49°40' W 004°14'1618.1
2016-Jun-22 09:33N 49°45' W 003°51'1716.9
2016-Jun-22 08:33N 49°52' W 003°27'1616.4
2016-Jun-22 07:33N 49°57' W 003°03'1717.0
2016-Jun-22 06:33N 50°02' W 002°37'3817.4
2016-Jun-22 04:21N 49°57' W 001°38'1721.3
2016-Jun-22 03:33N 49°50' W 001°15'2121.2
2016-Jun-22 02:33N 49°42' W 000°44'2019.9
2016-Jun-22 01:33N 49°34' W 000°16'1515.0
2016-Jun-22 00:33N 49°29' E 000°05'3 3.0
2016-Jun-21 23:32N 49°27' E 000°10'0 0.0
2016-Jun-21 22:32N 49°27' E 000°10'0 0.0
2016-Jun-21 21:32N 49°27' E 000°10'0 0.0
2016-Jun-21 20:32N 49°27' E 000°10'0 0.0
2016-Jun-21 19:32N 49°27' E 000°10'0 0.0
2016-Jun-21 18:32N 49°27' E 000°10'0 0.0
2016-Jun-21 17:32N 49°27' E 000°10'0 0.0
2016-Jun-21 16:32N 49°27' E 000°10'0 0.0
2016-Jun-21 15:32N 49°27' E 000°10'0 0.0
2016-Jun-21 14:32N 49°27' E 000°10'0 0.0
2016-Jun-21 13:32N 49°27' E 000°10'0 0.0
2016-Jun-21 12:33N 49°27' E 000°10'5 5.2
2016-Jun-21 11:34N 49°30' E 000°03'4 3.6
2016-Jun-21 10:33N 49°30' W 000°03'1 1.3
2016-Jun-21 09:33N 49°30' W 000°05'1211.8
2016-Jun-21 08:33N 49°41' W 000°11'1615.7
2016-Jun-21 07:33N 49°57' W 000°10'1413.8
2016-Jun-21 06:33N 50°11' W 000°12'2311.5
2016-Jun-21 04:33N 50°30' E 000°09'1614.1
2016-Jun-21 03:26N 50°34' E 000°33'2915.2
2016-Jun-21 01:31N 50°51' E 001°11'1414.8
2016-Jun-21 00:33N 51°01' E 001°27'1514.6
2016-Jun-20 23:33N 51°11' E 001°43'1414.0
2016-Jun-20 22:33N 51°22' E 001°57'1211.8
2016-Jun-20 21:34N 51°21' E 002°15'1414.0
2016-Jun-20 20:32N 51°23' E 002°38'1414.1
2016-Jun-20 19:31N 51°24' E 003°01'1515.4
2016-Jun-20 18:33N 51°25' E 003°25'1111.4
2016-Jun-20 17:34N 51°23' E 003°43'1212.0
2016-Jun-20 16:34N 51°25' E 004°02'1010.4
2016-Jun-20 15:34N 51°20' E 004°16'2 2.4
2016-Jun-20 14:33N 51°18' E 004°16'0 0.0
2016-Jun-20 13:33N 51°18' E 004°16'0 0.0
2016-Jun-20 12:27N 51°18' E 004°16'0 0.0
2016-Jun-20 11:30N 51°18' E 004°16'0 0.0
2016-Jun-20 10:33N 51°18' E 004°16'0 0.0
2016-Jun-20 09:30N 51°18' E 004°16'0 0.0
2016-Jun-20 08:33N 51°18' E 004°16'0 0.0
2016-Jun-20 07:33N 51°18' E 004°16'0 0.0
2016-Jun-20 06:30N 51°18' E 004°16'0 0.0
2016-Jun-20 05:30N 51°18' E 004°16'0 0.0
2016-Jun-20 04:24N 51°18' E 004°16'0 0.0
2016-Jun-20 03:33N 51°18' E 004°16'0 0.0
2016-Jun-20 02:33N 51°18' E 004°16'0 0.0
2016-Jun-20 01:33N 51°18' E 004°16'4 3.7
2016-Jun-20 00:34N 51°21' E 004°15'1111.1
2016-Jun-19 23:34N 51°25' E 003°58'1212.1
2016-Jun-19 22:33N 51°26' E 003°38'1414.4
2016-Jun-19 21:34N 51°25' E 003°16'10 9.7
2016-Jun-19 20:33N 51°29' E 003°01'1816.5
2016-Jun-19 19:29N 51°44' E 003°14'2312.1
2016-Jun-19 17:33N 52°07' E 003°21'1111.3
2016-Jun-19 16:33N 52°18' E 003°25'1211.2
2016-Jun-19 15:32N 52°29' E 003°28'1110.9
2016-Jun-19 14:32N 52°40' E 003°34'7211.1
2016-Jun-19 08:05N 53°32' E 004°55'611.8
2016-Jun-19 07:33N 53°34' E 005°06'1111.2
2016-Jun-19 06:34N 53°38' E 005°23'1111.3
2016-Jun-19 05:33N 53°42' E 005°41'1111.3
2016-Jun-19 04:34N 53°45' E 005°60'1111.3
2016-Jun-19 03:33N 53°49' E 006°18'1111.1
2016-Jun-19 02:33N 53°51' E 006°36'1111.4
2016-Jun-19 01:33N 53°54' E 006°55'1211.4
2016-Jun-19 00:33N 53°57' E 007°14'1111.5
2016-Jun-18 23:33N 53°60' E 007°32'1111.5
2016-Jun-18 22:33N 54°02' E 007°52'1111.4
2016-Jun-18 21:33N 54°01' E 008°11'1212.5
2016-Jun-18 20:33N 53°58' E 008°32'1111.5
2016-Jun-18 19:33N 53°51' E 008°47'1514.9
2016-Jun-18 18:33N 53°53' E 009°12'1615.9
2016-Jun-18 17:34N 53°41' E 009°30'1413.7
2016-Jun-18 16:33N 53°33' E 009°49'4 3.6
2016-Jun-18 15:33N 53°32' E 009°55'0 0.0
2016-Jun-18 14:33N 53°32' E 009°55'0 0.0
2016-Jun-18 13:33N 53°32' E 009°55'0 0.0
2016-Jun-18 12:33N 53°32' E 009°55'0 0.0
2016-Jun-18 11:33N 53°32' E 009°55'0 0.0
2016-Jun-18 10:33N 53°32' E 009°55'0 0.0
2016-Jun-18 09:33N 53°32' E 009°55'0 0.0
2016-Jun-18 08:33N 53°32' E 009°55'0 0.0
2016-Jun-18 07:33N 53°32' E 009°55'0 0.0
2016-Jun-18 06:33N 53°32' E 009°55'0 0.0
2016-Jun-18 05:33N 53°32' E 009°55'2 2.1
2016-Jun-18 04:33N 53°33' E 009°51'9 8.7
2016-Jun-18 03:33N 53°35' E 009°37'1110.9
2016-Jun-18 02:34N 53°44' E 009°26'1313.1
2016-Jun-18 01:33N 53°53' E 009°10'1211.9
2016-Jun-18 00:33N 53°50' E 008°50'1312.7
2016-Jun-17 23:33N 53°58' E 008°33'1515.1
2016-Jun-17 22:33N 53°59' E 008°07'4 4.0
2016-Jun-17 21:33N 53°60' E 008°14'7 7.1
2016-Jun-17 20:33N 53°58' E 008°02'8 8.5
2016-Jun-17 19:34N 53°57' E 007°48'1010.0
2016-Jun-17 18:33N 53°54' E 007°32'1010.1
2016-Jun-17 17:34N 53°52' E 007°15'10 9.6
2016-Jun-17 16:33N 53°50' E 006°59'9 9.4
2016-Jun-17 15:33N 53°48' E 006°44'9 9.5
2016-Jun-17 14:33N 53°46' E 006°28'9 9.4
2016-Jun-17 13:33N 53°43' E 006°12'9 9.5
2016-Jun-17 12:33N 53°40' E 005°57'10 9.5
2016-Jun-17 11:33N 53°37' E 005°42'9 9.4
2016-Jun-17 10:33N 53°34' E 005°27'9 9.2
2016-Jun-17 09:33N 53°31' E 005°12'9 9.2
2016-Jun-17 08:33N 53°28' E 004°58'9 8.5
2016-Jun-17 07:30N 53°24' E 004°44'9 8.5
2016-Jun-17 06:25N 53°16' E 004°37'7 8.2
2016-Jun-17 05:33N 53°10' E 004°31'9 8.7
2016-Jun-17 04:33N 53°03' E 004°24'9 9.1
2016-Jun-17 03:33N 52°55' E 004°16'10 9.6
2016-Jun-17 02:33N 52°46' E 004°08'10 9.8
2016-Jun-17 01:33N 52°38' E 003°60'1010.2
2016-Jun-17 00:33N 52°28' E 003°54'1010.2
2016-Jun-16 23:33N 52°18' E 003°52'10 9.7
2016-Jun-16 22:33N 52°09' E 003°55'8 8.4
2016-Jun-16 21:33N 52°01' E 003°60'1413.6
2016-Jun-16 20:34N 51°54' E 004°18'5 4.6
2016-Jun-16 19:31N 51°54' E 004°26'0 0.0
2016-Jun-16 18:31N 51°54' E 004°26'0 0.0
2016-Jun-16 17:31N 51°54' E 004°26'0 0.0
2016-Jun-16 16:31N 51°54' E 004°26'0 0.0
2016-Jun-16 15:31N 51°54' E 004°26'0 0.0
2016-Jun-16 14:31N 51°54' E 004°26'0 0.0
2016-Jun-16 13:28N 51°54' E 004°26'0 0.0
2016-Jun-16 12:28N 51°54' E 004°26'0 0.0
2016-Jun-16 11:31N 51°54' E 004°26'0 0.0
2016-Jun-16 10:31N 51°54' E 004°26'0 0.0
2016-Jun-16 09:31N 51°54' E 004°26'0 0.0
2016-Jun-16 08:31N 51°54' E 004°26'0 0.0
2016-Jun-16 07:31N 51°54' E 004°26'0 0.0
2016-Jun-16 06:28N 51°54' E 004°26'0 0.0
2016-Jun-16 05:31N 51°54' E 004°26'0 0.0
2016-Jun-16 04:31N 51°54' E 004°26'1 0.7
2016-Jun-16 03:34N 51°54' E 004°26'7 6.9
2016-Jun-16 02:33N 51°55' E 004°14'1010.0
2016-Jun-16 01:33N 51°60' E 004°00'1110.6
2016-Jun-16 00:33N 51°59' E 003°43'1212.1
2016-Jun-15 23:33N 51°56' E 003°24'1413.4
2016-Jun-15 22:29N 51°52' E 003°01'1313.7
2016-Jun-15 21:33N 51°47' E 002°43'1413.8
2016-Jun-15 20:33N 51°37' E 002°27'1414.0
2016-Jun-15 19:33N 51°28' E 002°10'1413.9
2016-Jun-15 18:33N 51°17' E 001°55'1414.0
2016-Jun-15 17:34N 51°07' E 001°41'1313.4
2016-Jun-15 16:33N 50°56' E 001°28'1713.7
2016-Jun-15 15:18N 50°40' E 001°18'4913.2
2016-Jun-15 11:33N 50°21' E 000°07'1413.8
2016-Jun-15 10:33N 50°17' W 000°14'1615.9
2016-Jun-15 09:34N 50°13' W 000°38'8813.8
2016-Jun-15 03:13N 49°50' W 002°50'1014.1
2016-Jun-15 02:30N 49°46' W 003°04'1314.1
2016-Jun-15 01:33N 49°41' W 003°23'1614.0
2016-Jun-15 00:27N 49°36' W 003°46'  

Dump ship's entire track history